PWSweather.com
Personal Weather Stations
Station Observations
WESTON01
WestonSuperMareGB BS22 8RT

WestonSuperMareGB BS22 8RT

Lat: 51.351508, Lon: -2.933373

Elevation: 15

Station Type: Fine Offset WH1080

http://www.westonweather.co.uk

High Low Average
Temperature 75.5°F24.2°F 54.2°F12.3°F 63.0°F17.2°F
Dew Point 51.9°F11.1°F 40.9°F4.9°F 45.7°F7.6°F
Winds 8.8 mph -14.2 mph - 0.5 mph 0.8 mph 4.3 mph 6.9 mph
Wind Gusts 13.1 mph21.1 mph 2.1 mph3.4 mph 6.6 mph10.6 mph
Humidity 65% 43% 54%
Pressure 29.50 in999.00 in 29.32 in992.90 in -
Precipitation 0.00 in0.00 in - -
Hour Temp Dew Point Humidity Winds Wind Gusts Pressure Precip Precip Rate Daily Precip Total
12:00 AM 56.8°F13.8°C 41.7°F5.4°C 57% 2.0 mph E3.2 kmh E 4.8 mph7.7 kmh 29.50 in999.0 mb 0.00 in0.0 mm 0.00 in0.0 mm 0.00 in0.0 mm
12:05 AM 56.8°F13.8°C 41.7°F5.4°C 57% 3.0 mph E4.8 kmh E 5.4 mph8.7 kmh 29.50 in999.0 mb 0.00 in0.0 mm 0.00 in0.0 mm 0.00 in0.0 mm
12:10 AM 56.8°F13.8°C 41.7°F5.4°C 57% 3.7 mph E6.0 kmh E 5.4 mph8.7 kmh 29.50 in999.0 mb 0.00 in0.0 mm 0.00 in0.0 mm 0.00 in0.0 mm
12:15 AM 56.8°F13.8°C 41.7°F5.4°C 57% 2.3 mph E3.7 kmh E 5.1 mph8.2 kmh 29.50 in999.0 mb 0.00 in0.0 mm 0.00 in0.0 mm 0.00 in0.0 mm
12:20 AM 56.8°F13.8°C 41.7°F5.4°C 57% 2.3 mph ENE3.7 kmh ENE 4.2 mph6.8 kmh 29.50 in999.0 mb 0.00 in0.0 mm 0.00 in0.0 mm 0.00 in0.0 mm
12:25 AM 56.6°F13.7°C 42.0°F5.6°C 58% 3.3 mph E5.3 kmh E 4.8 mph7.7 kmh 29.50 in999.0 mb 0.00 in0.0 mm 0.00 in0.0 mm 0.00 in0.0 mm
12:30 AM 56.4°F13.6°C 41.8°F5.4°C 58% 4.0 mph E6.4 kmh E 5.4 mph8.7 kmh 29.50 in999.0 mb 0.00 in0.0 mm 0.00 in0.0 mm 0.00 in0.0 mm
12:35 AM 56.4°F13.6°C 41.8°F5.4°C 58% 3.7 mph ENE6.0 kmh ENE 5.4 mph8.7 kmh 29.50 in999.0 mb 0.00 in0.0 mm 0.00 in0.0 mm 0.00 in0.0 mm
12:40 AM 56.2°F13.4°C 41.6°F5.3°C 58% 3.4 mph ENE5.5 kmh ENE 5.1 mph8.2 kmh 29.50 in999.0 mb 0.00 in0.0 mm 0.00 in0.0 mm 0.00 in0.0 mm
12:45 AM 56.2°F13.4°C 41.6°F5.3°C 58% 3.5 mph ENE5.6 kmh ENE 4.8 mph7.7 kmh 29.50 in999.0 mb 0.00 in0.0 mm 0.00 in0.0 mm 0.00 in0.0 mm
12:50 AM 56.0°F13.3°C 41.9°F5.5°C 59% 4.4 mph E7.1 kmh E 5.4 mph8.7 kmh 29.50 in999.0 mb 0.00 in0.0 mm 0.00 in0.0 mm 0.00 in0.0 mm
12:55 AM 56.0°F13.3°C 41.9°F5.5°C 59% 4.6 mph E7.4 kmh E 5.7 mph9.2 kmh 29.50 in999.0 mb 0.00 in0.0 mm 0.00 in0.0 mm 0.00 in0.0 mm
01:00 AM 56.2°F13.4°C 42.1°F5.6°C 59% 5.2 mph ENE8.4 kmh ENE 7.4 mph11.9 kmh 29.50 in999.0 mb 0.00 in0.0 mm 0.00 in0.0 mm 0.00 in0.0 mm
01:05 AM 56.4°F13.6°C 42.2°F5.7°C 59% 4.5 mph E7.2 kmh E 7.4 mph11.9 kmh 29.50 in999.0 mb 0.00 in0.0 mm 0.00 in0.0 mm 0.00 in0.0 mm
01:10 AM 56.4°F13.6°C 42.2°F5.7°C 59% 3.0 mph E4.8 kmh E 4.2 mph6.8 kmh 29.47 in998.0 mb 0.00 in0.0 mm 0.00 in0.0 mm 0.00 in0.0 mm
01:15 AM 56.4°F13.6°C 42.2°F5.7°C 59% 3.1 mph E5.0 kmh E 4.2 mph6.8 kmh 29.47 in998.0 mb 0.00 in0.0 mm 0.00 in0.0 mm 0.00 in0.0 mm
01:20 AM 56.4°F13.6°C 42.2°F5.7°C 59% 3.7 mph E6.0 kmh E 5.1 mph8.2 kmh 29.47 in998.0 mb 0.00 in0.0 mm 0.00 in0.0 mm 0.00 in0.0 mm
01:25 AM 56.4°F13.6°C 42.2°F5.7°C 59% 3.6 mph ENE5.8 kmh ENE 5.1 mph8.2 kmh 29.47 in998.0 mb 0.00 in0.0 mm 0.00 in0.0 mm 0.00 in0.0 mm
01:30 AM 56.2°F13.4°C 42.1°F5.6°C 59% 3.6 mph ENE5.8 kmh ENE 4.8 mph7.7 kmh 29.47 in998.0 mb 0.00 in0.0 mm 0.00 in0.0 mm 0.00 in0.0 mm
01:35 AM 56.2°F13.4°C 42.1°F5.6°C 59% 4.0 mph NE6.4 kmh NE 5.1 mph8.2 kmh 29.47 in998.0 mb 0.00 in0.0 mm 0.00 in0.0 mm 0.00 in0.0 mm
01:40 AM 56.0°F13.3°C 41.9°F5.5°C 59% 4.1 mph NE6.6 kmh NE 5.4 mph8.7 kmh 29.47 in998.0 mb 0.00 in0.0 mm 0.00 in0.0 mm 0.00 in0.0 mm
01:45 AM 56.0°F13.3°C 42.3°F5.7°C 60% 3.1 mph ENE5.0 kmh ENE 5.4 mph8.7 kmh 29.47 in998.0 mb 0.00 in0.0 mm 0.00 in0.0 mm 0.00 in0.0 mm
01:50 AM 56.0°F13.3°C 42.3°F5.7°C 60% 1.6 mph ENE2.6 kmh ENE 4.2 mph6.8 kmh 29.47 in998.0 mb 0.00 in0.0 mm 0.00 in0.0 mm 0.00 in0.0 mm
01:55 AM 55.8°F13.2°C 42.2°F5.7°C 60% 1.4 mph E2.3 kmh E 3.3 mph5.3 kmh 29.47 in998.0 mb 0.00 in0.0 mm 0.00 in0.0 mm 0.00 in0.0 mm
02:00 AM 55.7°F13.2°C 42.0°F5.6°C 60% 1.8 mph ENE2.9 kmh ENE 3.3 mph5.3 kmh 29.47 in998.0 mb 0.00 in0.0 mm 0.00 in0.0 mm 0.00 in0.0 mm
02:05 AM 55.7°F13.2°C 42.0°F5.6°C 60% 2.0 mph ENE3.2 kmh ENE 3.3 mph5.3 kmh 29.47 in998.0 mb 0.00 in0.0 mm 0.00 in0.0 mm 0.00 in0.0 mm
02:10 AM 55.5°F13.1°C 41.8°F5.4°C 60% 2.2 mph ENE3.5 kmh ENE 3.3 mph5.3 kmh 29.47 in998.0 mb 0.00 in0.0 mm 0.00 in0.0 mm 0.00 in0.0 mm
02:15 AM 55.5°F13.1°C 42.3°F5.7°C 61% 1.2 mph ENE1.9 kmh ENE 3.9 mph6.3 kmh 29.47 in998.0 mb 0.00 in0.0 mm 0.00 in0.0 mm 0.00 in0.0 mm
02:20 AM 55.3°F12.9°C 42.1°F5.6°C 61% 1.2 mph NE1.9 kmh NE 3.9 mph6.3 kmh 29.47 in998.0 mb 0.00 in0.0 mm 0.00 in0.0 mm 0.00 in0.0 mm
02:25 AM 55.3°F12.9°C 42.1°F5.6°C 61% 2.0 mph NE3.2 kmh NE 4.2 mph6.8 kmh 29.47 in998.0 mb 0.00 in0.0 mm 0.00 in0.0 mm 0.00 in0.0 mm
02:30 AM 55.1°F12.8°C 41.9°F5.5°C 61% 2.6 mph NE4.2 kmh NE 4.2 mph6.8 kmh 29.47 in998.0 mb 0.00 in0.0 mm 0.00 in0.0 mm 0.00 in0.0 mm
02:35 AM 55.1°F12.8°C 41.9°F5.5°C 61% 2.7 mph NE4.3 kmh NE 3.9 mph6.3 kmh 29.44 in997.0 mb 0.00 in0.0 mm 0.00 in0.0 mm 0.00 in0.0 mm
02:40 AM 55.1°F12.8°C 42.3°F5.7°C 62% 3.3 mph ENE5.3 kmh ENE 5.1 mph8.2 kmh 29.44 in997.0 mb 0.00 in0.0 mm 0.00 in0.0 mm 0.00 in0.0 mm
02:45 AM 55.1°F12.8°C 42.3°F5.7°C 62% 3.5 mph ENE5.6 kmh ENE 5.1 mph8.2 kmh 29.44 in997.0 mb 0.00 in0.0 mm 0.00 in0.0 mm 0.00 in0.0 mm
02:50 AM 55.1°F12.8°C 42.3°F5.7°C 62% 3.4 mph NE5.5 kmh NE 4.8 mph7.7 kmh 29.44 in997.0 mb 0.00 in0.0 mm 0.00 in0.0 mm 0.00 in0.0 mm
02:55 AM 55.1°F12.8°C 42.3°F5.7°C 62% 3.6 mph ENE5.8 kmh ENE 4.8 mph7.7 kmh 29.44 in997.0 mb 0.00 in0.0 mm 0.00 in0.0 mm 0.00 in0.0 mm
03:00 AM 55.0°F12.8°C 42.2°F5.7°C 62% 3.0 mph E4.8 kmh E 4.5 mph7.2 kmh 29.44 in997.0 mb 0.00 in0.0 mm 0.00 in0.0 mm 0.00 in0.0 mm
03:05 AM 55.0°F12.8°C 42.2°F5.7°C 62% 3.0 mph ENE4.8 kmh ENE 5.1 mph8.2 kmh 29.44 in997.0 mb 0.00 in0.0 mm 0.00 in0.0 mm 0.00 in0.0 mm
03:10 AM 55.0°F12.8°C 42.6°F5.9°C 63% 2.8 mph ENE4.5 kmh ENE 5.1 mph8.2 kmh 29.44 in997.0 mb 0.00 in0.0 mm 0.00 in0.0 mm 0.00 in0.0 mm
03:15 AM 55.0°F12.8°C 42.6°F5.9°C 63% 1.7 mph ENE2.7 kmh ENE 3.6 mph5.8 kmh 29.44 in997.0 mb 0.00 in0.0 mm 0.00 in0.0 mm 0.00 in0.0 mm
03:20 AM 55.0°F12.8°C 42.6°F5.9°C 63% 1.9 mph NE3.1 kmh NE 4.8 mph7.7 kmh 29.44 in997.0 mb 0.00 in0.0 mm 0.00 in0.0 mm 0.00 in0.0 mm
03:25 AM 55.0°F12.8°C 42.6°F5.9°C 63% 2.2 mph ENE3.5 kmh ENE 5.1 mph8.2 kmh 29.44 in997.0 mb 0.00 in0.0 mm 0.00 in0.0 mm 0.00 in0.0 mm
03:30 AM 55.0°F12.8°C 43.0°F6.1°C 64% 2.7 mph NE4.3 kmh NE 5.1 mph8.2 kmh 29.44 in997.0 mb 0.00 in0.0 mm 0.00 in0.0 mm 0.00 in0.0 mm
03:35 AM 54.8°F12.7°C 42.8°F6.0°C 64% 3.4 mph NE5.5 kmh NE 5.1 mph8.2 kmh 29.44 in997.0 mb 0.00 in0.0 mm 0.00 in0.0 mm 0.00 in0.0 mm
03:40 AM 54.8°F12.7°C 42.8°F6.0°C 64% 3.1 mph NE5.0 kmh NE 4.8 mph7.7 kmh 29.44 in997.0 mb 0.00 in0.0 mm 0.00 in0.0 mm 0.00 in0.0 mm
03:45 AM 54.8°F12.7°C 42.8°F6.0°C 64% 3.9 mph NE6.3 kmh NE 5.7 mph9.2 kmh 29.44 in997.0 mb 0.00 in0.0 mm 0.00 in0.0 mm 0.00 in0.0 mm
03:50 AM 54.8°F12.7°C 42.8°F6.0°C 64% 3.6 mph ENE5.8 kmh ENE 5.7 mph9.2 kmh 29.44 in997.0 mb 0.00 in0.0 mm 0.00 in0.0 mm 0.00 in0.0 mm
03:55 AM 54.8°F12.7°C 42.8°F6.0°C 64% 2.9 mph E4.7 kmh E 4.2 mph6.8 kmh 29.44 in997.0 mb 0.00 in0.0 mm 0.00 in0.0 mm 0.00 in0.0 mm
04:00 AM 54.8°F12.7°C 42.8°F6.0°C 64% 3.0 mph E4.8 kmh E 4.2 mph6.8 kmh 29.44 in997.0 mb 0.00 in0.0 mm 0.00 in0.0 mm 0.00 in0.0 mm
04:05 AM 54.8°F12.7°C 42.8°F6.0°C 64% 2.1 mph E3.4 kmh E 3.6 mph5.8 kmh 29.44 in997.0 mb 0.00 in0.0 mm 0.00 in0.0 mm 0.00 in0.0 mm
04:10 AM 54.6°F12.6°C 42.7°F5.9°C 64% 1.6 mph ENE2.6 kmh ENE 3.3 mph5.3 kmh 29.44 in997.0 mb 0.00 in0.0 mm 0.00 in0.0 mm 0.00 in0.0 mm
04:15 AM 54.4°F12.4°C 42.5°F5.8°C 64% 1.7 mph E2.7 kmh E 3.6 mph5.8 kmh 29.44 in997.0 mb 0.00 in0.0 mm 0.00 in0.0 mm 0.00 in0.0 mm
04:20 AM 54.4°F12.4°C 42.5°F5.8°C 64% 1.8 mph E2.9 kmh E 3.9 mph6.3 kmh 29.41 in995.9 mb 0.00 in0.0 mm 0.00 in0.0 mm 0.00 in0.0 mm
04:25 AM 54.4°F12.4°C 42.5°F5.8°C 64% 1.4 mph E2.3 kmh E 3.9 mph6.3 kmh 29.41 in995.9 mb 0.00 in0.0 mm 0.00 in0.0 mm 0.00 in0.0 mm
04:35 AM 54.2°F12.3°C 42.3°F5.7°C 64% 1.6 mph E2.6 kmh E 3.0 mph4.8 kmh 29.44 in997.0 mb 0.00 in0.0 mm 0.00 in0.0 mm 0.00 in0.0 mm
04:40 AM 54.2°F12.3°C 42.3°F5.7°C 64% 1.7 mph E2.7 kmh E 3.0 mph4.8 kmh 29.44 in997.0 mb 0.00 in0.0 mm 0.00 in0.0 mm 0.00 in0.0 mm
04:45 AM 54.2°F12.3°C 42.3°F5.7°C 64% 1.1 mph E1.8 kmh E 2.1 mph3.4 kmh 29.44 in997.0 mb 0.00 in0.0 mm 0.00 in0.0 mm 0.00 in0.0 mm
04:50 AM 54.2°F12.3°C 42.7°F5.9°C 65% 1.8 mph ENE2.9 kmh ENE 3.3 mph5.3 kmh 29.41 in995.9 mb 0.00 in0.0 mm 0.00 in0.0 mm 0.00 in0.0 mm
04:55 AM 54.2°F12.3°C 42.7°F5.9°C 65% 3.1 mph ENE5.0 kmh ENE 7.1 mph11.4 kmh 29.41 in995.9 mb 0.00 in0.0 mm 0.00 in0.0 mm 0.00 in0.0 mm
05:00 AM 54.6°F12.6°C 42.7°F5.9°C 64% 6.2 mph E10.0 kmh E 8.6 mph13.8 kmh 29.41 in995.9 mb 0.00 in0.0 mm 0.00 in0.0 mm 0.00 in0.0 mm
05:05 AM 54.8°F12.7°C 42.4°F5.8°C 63% 6.8 mph E10.9 kmh E 8.6 mph13.8 kmh 29.41 in995.9 mb 0.00 in0.0 mm 0.00 in0.0 mm 0.00 in0.0 mm
05:10 AM 55.0°F12.8°C 42.6°F5.9°C 63% 6.7 mph E10.8 kmh E 8.0 mph12.9 kmh 29.41 in995.9 mb 0.00 in0.0 mm 0.00 in0.0 mm 0.00 in0.0 mm
05:15 AM 55.1°F12.8°C 42.3°F5.7°C 62% 6.8 mph E10.9 kmh E 8.3 mph13.4 kmh 29.41 in995.9 mb 0.00 in0.0 mm 0.00 in0.0 mm 0.00 in0.0 mm
05:20 AM 55.1°F12.8°C 42.3°F5.7°C 62% 6.1 mph E9.8 kmh E 8.3 mph13.4 kmh 29.41 in995.9 mb 0.00 in0.0 mm 0.00 in0.0 mm 0.00 in0.0 mm
05:25 AM 55.1°F12.8°C 42.3°F5.7°C 62% 7.5 mph E12.1 kmh E 10.4 mph16.7 kmh 29.41 in995.9 mb 0.00 in0.0 mm 0.00 in0.0 mm 0.00 in0.0 mm
05:30 AM 55.3°F12.9°C 42.1°F5.6°C 61% 7.4 mph E11.9 kmh E 10.4 mph16.7 kmh 29.41 in995.9 mb 0.00 in0.0 mm 0.00 in0.0 mm 0.00 in0.0 mm
05:35 AM 55.3°F12.9°C 41.7°F5.4°C 60% 7.5 mph E12.1 kmh E 10.4 mph16.7 kmh 29.44 in997.0 mb 0.00 in0.0 mm 0.00 in0.0 mm 0.00 in0.0 mm
05:40 AM 55.3°F12.9°C 41.7°F5.4°C 60% 8.5 mph E13.7 kmh E 13.1 mph21.1 kmh 29.44 in997.0 mb 0.00 in0.0 mm 0.00 in0.0 mm 0.00 in0.0 mm
05:45 AM 55.3°F12.9°C 41.7°F5.4°C 60% 8.8 mph ENE14.2 kmh ENE 13.1 mph21.1 kmh 29.44 in997.0 mb 0.00 in0.0 mm 0.00 in0.0 mm 0.00 in0.0 mm
05:50 AM 55.1°F12.8°C 41.5°F5.3°C 60% 7.1 mph NE11.4 kmh NE 9.8 mph15.8 kmh 29.41 in995.9 mb 0.00 in0.0 mm 0.00 in0.0 mm 0.00 in0.0 mm
05:55 AM 55.1°F12.8°C 41.5°F5.3°C 60% 6.4 mph ENE10.3 kmh ENE 7.7 mph12.4 kmh 29.41 in995.9 mb 0.00 in0.0 mm 0.00 in0.0 mm 0.00 in0.0 mm
06:00 AM 55.1°F12.8°C 41.5°F5.3°C 60% 5.8 mph ENE9.3 kmh ENE 8.0 mph12.9 kmh 29.41 in995.9 mb 0.00 in0.0 mm 0.00 in0.0 mm 0.00 in0.0 mm
06:05 AM 55.1°F12.8°C 41.5°F5.3°C 60% 5.7 mph ENE9.2 kmh ENE 9.2 mph14.8 kmh 29.41 in995.9 mb 0.00 in0.0 mm 0.00 in0.0 mm 0.00 in0.0 mm
06:10 AM 55.0°F12.8°C 40.9°F4.9°C 59% 5.4 mph E8.7 kmh E 9.2 mph14.8 kmh 29.41 in995.9 mb 0.00 in0.0 mm 0.00 in0.0 mm 0.00 in0.0 mm
06:15 AM 55.0°F12.8°C 40.9°F4.9°C 59% 4.4 mph E7.1 kmh E 8.6 mph13.8 kmh 29.41 in995.9 mb 0.00 in0.0 mm 0.00 in0.0 mm 0.00 in0.0 mm
06:20 AM 55.0°F12.8°C 41.3°F5.2°C 60% 4.0 mph E6.4 kmh E 5.7 mph9.2 kmh 29.44 in997.0 mb 0.00 in0.0 mm 0.00 in0.0 mm 0.00 in0.0 mm
06:25 AM 55.1°F12.8°C 41.5°F5.3°C 60% 4.5 mph ENE7.2 kmh ENE 8.0 mph12.9 kmh 29.44 in997.0 mb 0.00 in0.0 mm 0.00 in0.0 mm 0.00 in0.0 mm
06:30 AM 55.1°F12.8°C 41.5°F5.3°C 60% 4.2 mph ENE6.8 kmh ENE 8.0 mph12.9 kmh 29.44 in997.0 mb 0.00 in0.0 mm 0.00 in0.0 mm 0.00 in0.0 mm
06:35 AM 55.3°F12.9°C 41.7°F5.4°C 60% 3.3 mph ENE5.3 kmh ENE 4.2 mph6.8 kmh 29.44 in997.0 mb 0.00 in0.0 mm 0.00 in0.0 mm 0.00 in0.0 mm
06:40 AM 55.3°F12.9°C 41.7°F5.4°C 60% 2.6 mph ENE4.2 kmh ENE 4.2 mph6.8 kmh 29.44 in997.0 mb 0.00 in0.0 mm 0.00 in0.0 mm 0.00 in0.0 mm
06:45 AM 55.5°F13.1°C 41.8°F5.4°C 60% 2.8 mph E4.5 kmh E 5.7 mph9.2 kmh 29.44 in997.0 mb 0.00 in0.0 mm 0.00 in0.0 mm 0.00 in0.0 mm
06:50 AM 55.8°F13.2°C 42.2°F5.7°C 60% 4.1 mph ENE6.6 kmh ENE 5.7 mph9.2 kmh 29.44 in997.0 mb 0.00 in0.0 mm 0.00 in0.0 mm 0.00 in0.0 mm
06:55 AM 56.0°F13.3°C 41.9°F5.5°C 59% 4.4 mph NE7.1 kmh NE 7.7 mph12.4 kmh 29.44 in997.0 mb 0.00 in0.0 mm 0.00 in0.0 mm 0.00 in0.0 mm
07:00 AM 56.4°F13.6°C 42.2°F5.7°C 59% 4.3 mph NE6.9 kmh NE 7.7 mph12.4 kmh 29.44 in997.0 mb 0.00 in0.0 mm 0.00 in0.0 mm 0.00 in0.0 mm
07:05 AM 56.8°F13.8°C 42.6°F5.9°C 59% 4.5 mph ENE7.2 kmh ENE 8.6 mph13.8 kmh 29.44 in997.0 mb 0.00 in0.0 mm 0.00 in0.0 mm 0.00 in0.0 mm
07:10 AM 56.9°F13.8°C 42.7°F5.9°C 59% 5.0 mph ENE8.0 kmh ENE 8.6 mph13.8 kmh 29.44 in997.0 mb 0.00 in0.0 mm 0.00 in0.0 mm 0.00 in0.0 mm
07:15 AM 57.3°F14.1°C 42.6°F5.9°C 58% 5.5 mph ENE8.9 kmh ENE 8.6 mph13.8 kmh 29.44 in997.0 mb 0.00 in0.0 mm 0.00 in0.0 mm 0.00 in0.0 mm
07:20 AM 57.7°F14.3°C 43.0°F6.1°C 58% 5.1 mph ENE8.2 kmh ENE 6.5 mph10.5 kmh 29.41 in995.9 mb 0.00 in0.0 mm 0.00 in0.0 mm 0.00 in0.0 mm
07:25 AM 57.8°F14.3°C 43.1°F6.2°C 58% 5.4 mph E8.7 kmh E 7.1 mph11.4 kmh 29.41 in995.9 mb 0.00 in0.0 mm 0.00 in0.0 mm 0.00 in0.0 mm
07:30 AM 57.8°F14.3°C 43.1°F6.2°C 58% 6.2 mph ENE10.0 kmh ENE 8.3 mph13.4 kmh 29.41 in995.9 mb 0.00 in0.0 mm 0.00 in0.0 mm 0.00 in0.0 mm
07:35 AM 58.5°F14.7°C 43.4°F6.3°C 57% 6.3 mph ENE10.1 kmh ENE 8.3 mph13.4 kmh 29.44 in997.0 mb 0.00 in0.0 mm 0.00 in0.0 mm 0.00 in0.0 mm
07:40 AM 58.7°F14.8°C 43.5°F6.4°C 57% 5.5 mph ENE8.9 kmh ENE 7.7 mph12.4 kmh 29.44 in997.0 mb 0.00 in0.0 mm 0.00 in0.0 mm 0.00 in0.0 mm
07:45 AM 59.1°F15.1°C 43.9°F6.6°C 57% 5.2 mph ENE8.4 kmh ENE 8.6 mph13.8 kmh 29.44 in997.0 mb 0.00 in0.0 mm 0.00 in0.0 mm 0.00 in0.0 mm
07:50 AM 59.5°F15.3°C 44.2°F6.8°C 57% 6.0 mph E9.7 kmh E 10.4 mph16.7 kmh 29.44 in997.0 mb 0.00 in0.0 mm 0.00 in0.0 mm 0.00 in0.0 mm
07:55 AM 59.6°F15.3°C 43.9°F6.6°C 56% 6.5 mph E10.5 kmh E 10.4 mph16.7 kmh 29.44 in997.0 mb 0.00 in0.0 mm 0.00 in0.0 mm 0.00 in0.0 mm
08:00 AM 59.8°F15.4°C 44.1°F6.7°C 56% 6.2 mph E10.0 kmh E 10.4 mph16.7 kmh 29.44 in997.0 mb 0.00 in0.0 mm 0.00 in0.0 mm 0.00 in0.0 mm
08:05 AM 60.3°F15.7°C 44.6°F7.0°C 56% 5.6 mph ENE9.0 kmh ENE 9.8 mph15.8 kmh 29.41 in995.9 mb 0.00 in0.0 mm 0.00 in0.0 mm 0.00 in0.0 mm
08:10 AM 60.5°F15.8°C 44.7°F7.1°C 56% 6.5 mph NE10.5 kmh NE 9.8 mph15.8 kmh 29.41 in995.9 mb 0.00 in0.0 mm 0.00 in0.0 mm 0.00 in0.0 mm
08:15 AM 60.7°F15.9°C 44.9°F7.2°C 56% 6.2 mph ENE10.0 kmh ENE 9.8 mph15.8 kmh 29.41 in995.9 mb 0.00 in0.0 mm 0.00 in0.0 mm 0.00 in0.0 mm
08:20 AM 60.9°F16.1°C 45.1°F7.3°C 56% 5.5 mph NE8.9 kmh NE 7.4 mph11.9 kmh 29.41 in995.9 mb 0.00 in0.0 mm 0.00 in0.0 mm 0.00 in0.0 mm
08:25 AM 61.3°F16.3°C 45.4°F7.4°C 56% 5.8 mph ENE9.3 kmh ENE 8.6 mph13.8 kmh 29.41 in995.9 mb 0.00 in0.0 mm 0.00 in0.0 mm 0.00 in0.0 mm
08:30 AM 61.6°F16.4°C 45.3°F7.4°C 55% 6.2 mph E10.0 kmh E 8.6 mph13.8 kmh 29.41 in995.9 mb 0.00 in0.0 mm 0.00 in0.0 mm 0.00 in0.0 mm
08:35 AM 61.8°F16.6°C 45.4°F7.4°C 55% 6.0 mph ENE9.7 kmh ENE 8.6 mph13.8 kmh 29.41 in995.9 mb 0.00 in0.0 mm 0.00 in0.0 mm 0.00 in0.0 mm
08:40 AM 62.0°F16.7°C 45.6°F7.6°C 55% 6.0 mph NE9.7 kmh NE 8.3 mph13.4 kmh 29.41 in995.9 mb 0.00 in0.0 mm 0.00 in0.0 mm 0.00 in0.0 mm
08:45 AM 62.5°F16.9°C 45.6°F7.6°C 54% 6.4 mph E10.3 kmh E 10.1 mph16.3 kmh 29.41 in995.9 mb 0.00 in0.0 mm 0.00 in0.0 mm 0.00 in0.0 mm
08:50 AM 62.7°F17.1°C 45.3°F7.4°C 53% 7.4 mph E11.9 kmh E 10.4 mph16.7 kmh 29.41 in995.9 mb 0.00 in0.0 mm 0.00 in0.0 mm 0.00 in0.0 mm
08:55 AM 62.7°F17.1°C 45.3°F7.4°C 53% 8.4 mph ENE13.5 kmh ENE 10.4 mph16.7 kmh 29.41 in995.9 mb 0.00 in0.0 mm 0.00 in0.0 mm 0.00 in0.0 mm
09:00 AM 62.7°F17.1°C 44.8°F7.1°C 52% 7.8 mph E12.6 kmh E 10.7 mph17.2 kmh 29.41 in995.9 mb 0.00 in0.0 mm 0.00 in0.0 mm 0.00 in0.0 mm
09:05 AM 62.9°F17.2°C 45.0°F7.2°C 52% 6.9 mph E11.1 kmh E 10.7 mph17.2 kmh 29.41 in995.9 mb 0.00 in0.0 mm 0.00 in0.0 mm 0.00 in0.0 mm
09:10 AM 63.2°F17.3°C 45.3°F7.4°C 52% 5.1 mph E8.2 kmh E 7.1 mph11.4 kmh 29.41 in995.9 mb 0.00 in0.0 mm 0.00 in0.0 mm 0.00 in0.0 mm
09:15 AM 63.4°F17.4°C 45.5°F7.5°C 52% 4.8 mph E7.7 kmh E 7.7 mph12.4 kmh 29.41 in995.9 mb 0.00 in0.0 mm 0.00 in0.0 mm 0.00 in0.0 mm
09:20 AM 63.6°F17.6°C 45.6°F7.6°C 52% 6.3 mph E10.1 kmh E 8.0 mph12.9 kmh 29.41 in995.9 mb 0.00 in0.0 mm 0.00 in0.0 mm 0.00 in0.0 mm
09:25 AM 63.6°F17.6°C 45.6°F7.6°C 52% 6.0 mph ENE9.7 kmh ENE 8.0 mph12.9 kmh 29.41 in995.9 mb 0.00 in0.0 mm 0.00 in0.0 mm 0.00 in0.0 mm
09:30 AM 63.6°F17.6°C 45.6°F7.6°C 52% 5.3 mph ENE8.5 kmh ENE 8.3 mph13.4 kmh 29.41 in995.9 mb 0.00 in0.0 mm 0.00 in0.0 mm 0.00 in0.0 mm
09:35 AM 64.0°F17.8°C 46.0°F7.8°C 52% 5.0 mph ENE8.0 kmh ENE 9.2 mph14.8 kmh 29.41 in995.9 mb 0.00 in0.0 mm 0.00 in0.0 mm 0.00 in0.0 mm
09:40 AM 64.5°F18.1°C 46.5°F8.1°C 52% 5.0 mph E8.0 kmh E 9.2 mph14.8 kmh 29.41 in995.9 mb 0.00 in0.0 mm 0.00 in0.0 mm 0.00 in0.0 mm
09:45 AM 64.5°F18.1°C 46.5°F8.1°C 52% 5.9 mph E9.5 kmh E 9.5 mph15.3 kmh 29.41 in995.9 mb 0.00 in0.0 mm 0.00 in0.0 mm 0.00 in0.0 mm
09:50 AM 64.7°F18.2°C 46.6°F8.1°C 52% 6.9 mph ENE11.1 kmh ENE 9.5 mph15.3 kmh 29.41 in995.9 mb 0.00 in0.0 mm 0.00 in0.0 mm 0.00 in0.0 mm
09:55 AM 64.8°F18.2°C 46.8°F8.2°C 52% 5.8 mph E9.3 kmh E 8.3 mph13.4 kmh 29.41 in995.9 mb 0.00 in0.0 mm 0.00 in0.0 mm 0.00 in0.0 mm
10:00 AM 64.8°F18.2°C 46.8°F8.2°C 52% 4.7 mph E7.6 kmh E 7.7 mph12.4 kmh 29.41 in995.9 mb 0.00 in0.0 mm 0.00 in0.0 mm 0.00 in0.0 mm
10:05 AM 65.4°F18.6°C 46.8°F8.2°C 51% 4.7 mph E7.6 kmh E 7.1 mph11.4 kmh 29.41 in995.9 mb 0.00 in0.0 mm 0.00 in0.0 mm 0.00 in0.0 mm
10:10 AM 65.8°F18.8°C 47.6°F8.7°C 52% 3.9 mph E6.3 kmh E 6.0 mph9.7 kmh 29.41 in995.9 mb 0.00 in0.0 mm 0.00 in0.0 mm 0.00 in0.0 mm
10:15 AM 66.3°F19.1°C 47.6°F8.7°C 51% 3.1 mph E5.0 kmh E 4.8 mph7.7 kmh 29.41 in995.9 mb 0.00 in0.0 mm 0.00 in0.0 mm 0.00 in0.0 mm
10:20 AM 66.7°F19.3°C 47.9°F8.8°C 51% 2.2 mph E3.5 kmh E 4.2 mph6.8 kmh 29.41 in995.9 mb 0.00 in0.0 mm 0.00 in0.0 mm 0.00 in0.0 mm
10:25 AM 66.8°F19.3°C 47.6°F8.7°C 50% 2.5 mph E4.0 kmh E 8.0 mph12.9 kmh 29.41 in995.9 mb 0.00 in0.0 mm 0.00 in0.0 mm 0.00 in0.0 mm
10:30 AM 67.4°F19.7°C 48.1°F8.9°C 50% 3.9 mph E6.3 kmh E 8.3 mph13.4 kmh 29.41 in995.9 mb 0.00 in0.0 mm 0.00 in0.0 mm 0.00 in0.0 mm
10:35 AM 67.9°F19.9°C 48.0°F8.9°C 49% 3.8 mph E6.1 kmh E 8.3 mph13.4 kmh 29.41 in995.9 mb 0.00 in0.0 mm 0.00 in0.0 mm 0.00 in0.0 mm
10:40 AM 68.4°F20.2°C 48.5°F9.2°C 49% 3.1 mph E5.0 kmh E 8.3 mph13.4 kmh 29.41 in995.9 mb 0.00 in0.0 mm 0.00 in0.0 mm 0.00 in0.0 mm
10:45 AM 68.8°F20.4°C 48.3°F9.1°C 48% 1.9 mph ESE3.1 kmh ESE 5.4 mph8.7 kmh 29.41 in995.9 mb 0.00 in0.0 mm 0.00 in0.0 mm 0.00 in0.0 mm
10:50 AM 69.2°F20.7°C 48.6°F9.2°C 48% 2.3 mph SE3.7 kmh SE 7.1 mph11.4 kmh 29.41 in995.9 mb 0.00 in0.0 mm 0.00 in0.0 mm 0.00 in0.0 mm
10:55 AM 69.5°F20.8°C 49.0°F9.4°C 48% 4.1 mph SSE6.6 kmh SSE 7.1 mph11.4 kmh 29.41 in995.9 mb 0.00 in0.0 mm 0.00 in0.0 mm 0.00 in0.0 mm
11:00 AM 69.5°F20.8°C 49.0°F9.4°C 48% 4.8 mph SSE7.7 kmh SSE 7.1 mph11.4 kmh 29.41 in995.9 mb 0.00 in0.0 mm 0.00 in0.0 mm 0.00 in0.0 mm
11:05 AM 69.7°F20.9°C 48.6°F9.2°C 47% 5.1 mph S8.2 kmh S 8.3 mph13.4 kmh 29.41 in995.9 mb 0.00 in0.0 mm 0.00 in0.0 mm 0.00 in0.0 mm
11:10 AM 69.7°F20.9°C 48.6°F9.2°C 47% 4.7 mph S7.6 kmh S 8.3 mph13.4 kmh 29.41 in995.9 mb 0.00 in0.0 mm 0.00 in0.0 mm 0.00 in0.0 mm
11:15 AM 70.4°F21.3°C 48.7°F9.3°C 46% 3.1 mph S5.0 kmh S 4.8 mph7.7 kmh 29.41 in995.9 mb 0.00 in0.0 mm 0.00 in0.0 mm 0.00 in0.0 mm
11:20 AM 70.4°F21.3°C 48.1°F8.9°C 45% 3.1 mph S5.0 kmh S 5.7 mph9.2 kmh 29.41 in995.9 mb 0.00 in0.0 mm 0.00 in0.0 mm 0.00 in0.0 mm
11:25 AM 70.6°F21.4°C 48.2°F9.0°C 45% 3.3 mph S5.3 kmh S 6.0 mph9.7 kmh 29.41 in995.9 mb 0.00 in0.0 mm 0.00 in0.0 mm 0.00 in0.0 mm
11:30 AM 71.0°F21.7°C 48.6°F9.2°C 45% 2.7 mph S4.3 kmh S 6.0 mph9.7 kmh 29.41 in995.9 mb 0.00 in0.0 mm 0.00 in0.0 mm 0.00 in0.0 mm
11:35 AM 71.5°F21.9°C 49.0°F9.4°C 45% 2.4 mph S3.9 kmh S 5.7 mph9.2 kmh 29.41 in995.9 mb 0.00 in0.0 mm 0.00 in0.0 mm 0.00 in0.0 mm
11:40 AM 71.9°F22.2°C 49.4°F9.7°C 45% 2.5 mph SW4.0 kmh SW 4.8 mph7.7 kmh 29.41 in995.9 mb 0.00 in0.0 mm 0.00 in0.0 mm 0.00 in0.0 mm
11:45 AM 72.4°F22.4°C 49.3°F9.6°C 44% 2.4 mph SW3.9 kmh SW 4.8 mph7.7 kmh 29.41 in995.9 mb 0.00 in0.0 mm 0.00 in0.0 mm 0.00 in0.0 mm
11:50 AM 72.9°F22.7°C 50.4°F10.2°C 45% 3.0 mph NE4.8 kmh NE 4.8 mph7.7 kmh 29.41 in995.9 mb 0.00 in0.0 mm 0.00 in0.0 mm 0.00 in0.0 mm
11:55 AM 73.3°F22.9°C 50.7°F10.4°C 45% 4.4 mph NE7.1 kmh NE 7.1 mph11.4 kmh 29.41 in995.9 mb 0.00 in0.0 mm 0.00 in0.0 mm 0.00 in0.0 mm
12:00 PM 73.7°F23.2°C 51.6°F10.9°C 46% 4.7 mph NNE7.6 kmh NNE 7.1 mph11.4 kmh 29.41 in995.9 mb 0.00 in0.0 mm 0.00 in0.0 mm 0.00 in0.0 mm
12:05 PM 74.4°F23.6°C 51.7°F10.9°C 45% 5.4 mph NNE8.7 kmh NNE 8.6 mph13.8 kmh 29.38 in994.9 mb 0.00 in0.0 mm 0.00 in0.0 mm 0.00 in0.0 mm
12:10 PM 74.6°F23.7°C 51.8°F11.0°C 45% 5.5 mph NNE8.9 kmh NNE 8.6 mph13.8 kmh 29.38 in994.9 mb 0.00 in0.0 mm 0.00 in0.0 mm 0.00 in0.0 mm
12:15 PM 73.8°F23.2°C 51.2°F10.7°C 45% 6.2 mph N10.0 kmh N 8.6 mph13.8 kmh 29.38 in994.9 mb 0.00 in0.0 mm 0.00 in0.0 mm 0.00 in0.0 mm
12:20 PM 73.1°F22.8°C 50.5°F10.3°C 45% 7.1 mph N11.4 kmh N 8.6 mph13.8 kmh 29.38 in994.9 mb 0.00 in0.0 mm 0.00 in0.0 mm 0.00 in0.0 mm
12:25 PM 73.1°F22.8°C 50.5°F10.3°C 45% 6.5 mph NNE10.5 kmh NNE 8.6 mph13.8 kmh 29.38 in994.9 mb 0.00 in0.0 mm 0.00 in0.0 mm 0.00 in0.0 mm
12:30 PM 73.3°F22.9°C 50.7°F10.4°C 45% 4.7 mph NNE7.6 kmh NNE 7.4 mph11.9 kmh 29.38 in994.9 mb 0.00 in0.0 mm 0.00 in0.0 mm 0.00 in0.0 mm
12:35 PM 73.1°F22.8°C 50.5°F10.3°C 45% 4.8 mph NNE7.7 kmh NNE 6.5 mph10.5 kmh 29.38 in994.9 mb 0.00 in0.0 mm 0.00 in0.0 mm 0.00 in0.0 mm
12:40 PM 73.1°F22.8°C 50.5°F10.3°C 45% 6.1 mph NNE9.8 kmh NNE 8.6 mph13.8 kmh 29.38 in994.9 mb 0.00 in0.0 mm 0.00 in0.0 mm 0.00 in0.0 mm
12:45 PM 73.1°F22.8°C 50.5°F10.3°C 45% 5.6 mph N9.0 kmh N 8.9 mph14.3 kmh 29.38 in994.9 mb 0.00 in0.0 mm 0.00 in0.0 mm 0.00 in0.0 mm
12:50 PM 73.3°F22.9°C 50.7°F10.4°C 45% 5.3 mph NE8.5 kmh NE 8.9 mph14.3 kmh 29.38 in994.9 mb 0.00 in0.0 mm 0.00 in0.0 mm 0.00 in0.0 mm
12:55 PM 73.3°F22.9°C 50.7°F10.4°C 45% 6.3 mph NE10.1 kmh NE 8.9 mph14.3 kmh 29.38 in994.9 mb 0.00 in0.0 mm 0.00 in0.0 mm 0.00 in0.0 mm
01:00 PM 73.5°F23.1°C 50.8°F10.4°C 45% 5.9 mph NNE9.5 kmh NNE 8.6 mph13.8 kmh 29.38 in994.9 mb 0.00 in0.0 mm 0.00 in0.0 mm 0.00 in0.0 mm
01:05 PM 73.8°F23.2°C 51.2°F10.7°C 45% 6.4 mph N10.3 kmh N 9.5 mph15.3 kmh 29.38 in994.9 mb 0.00 in0.0 mm 0.00 in0.0 mm 0.00 in0.0 mm
01:10 PM 74.0°F23.3°C 51.3°F10.7°C 45% 6.6 mph NNE10.6 kmh NNE 9.5 mph15.3 kmh 29.38 in994.9 mb 0.00 in0.0 mm 0.00 in0.0 mm 0.00 in0.0 mm
01:15 PM 74.4°F23.6°C 51.7°F10.9°C 45% 6.0 mph NE9.7 kmh NE 7.7 mph12.4 kmh 29.38 in994.9 mb 0.00 in0.0 mm 0.00 in0.0 mm 0.00 in0.0 mm
01:20 PM 74.8°F23.8°C 51.4°F10.8°C 44% 6.5 mph NE10.5 kmh NE 9.5 mph15.3 kmh 29.38 in994.9 mb 0.00 in0.0 mm 0.00 in0.0 mm 0.00 in0.0 mm
01:25 PM 74.8°F23.8°C 51.4°F10.8°C 44% 6.3 mph NE10.1 kmh NE 9.5 mph15.3 kmh 29.38 in994.9 mb 0.00 in0.0 mm 0.00 in0.0 mm 0.00 in0.0 mm
01:30 PM 75.1°F23.9°C 51.7°F10.9°C 44% 5.4 mph NE8.7 kmh NE 8.6 mph13.8 kmh 29.38 in994.9 mb 0.00 in0.0 mm 0.00 in0.0 mm 0.00 in0.0 mm
01:35 PM 75.3°F24.1°C 51.9°F11.1°C 44% 5.7 mph ENE9.2 kmh ENE 8.6 mph13.8 kmh 29.38 in994.9 mb 0.00 in0.0 mm 0.00 in0.0 mm 0.00 in0.0 mm
01:40 PM 75.5°F24.2°C 51.4°F10.8°C 43% 6.5 mph E10.5 kmh E 8.6 mph13.8 kmh 29.38 in994.9 mb 0.00 in0.0 mm 0.00 in0.0 mm 0.00 in0.0 mm
01:45 PM 75.5°F24.2°C 51.4°F10.8°C 43% 5.9 mph E9.5 kmh E 8.0 mph12.9 kmh 29.38 in994.9 mb 0.00 in0.0 mm 0.00 in0.0 mm 0.00 in0.0 mm
01:50 PM 74.9°F23.8°C 50.9°F10.5°C 43% 6.1 mph ENE9.8 kmh ENE 8.3 mph13.4 kmh 29.38 in994.9 mb 0.00 in0.0 mm 0.00 in0.0 mm 0.00 in0.0 mm
01:55 PM 74.8°F23.8°C 50.8°F10.4°C 43% 6.9 mph NE11.1 kmh NE 8.3 mph13.4 kmh 29.38 in994.9 mb 0.00 in0.0 mm 0.00 in0.0 mm 0.00 in0.0 mm
02:00 PM 74.6°F23.7°C 50.6°F10.3°C 43% 6.0 mph NE9.7 kmh NE 8.3 mph13.4 kmh 29.38 in994.9 mb 0.00 in0.0 mm 0.00 in0.0 mm 0.00 in0.0 mm
02:05 PM 74.4°F23.6°C 50.4°F10.2°C 43% 4.9 mph ENE7.9 kmh ENE 8.0 mph12.9 kmh 29.38 in994.9 mb 0.00 in0.0 mm 0.00 in0.0 mm 0.00 in0.0 mm
02:10 PM 74.4°F23.6°C 50.4°F10.2°C 43% 4.7 mph NE7.6 kmh NE 5.7 mph9.2 kmh 29.38 in994.9 mb 0.00 in0.0 mm 0.00 in0.0 mm 0.00 in0.0 mm
02:15 PM 74.2°F23.4°C 50.9°F10.5°C 44% 4.3 mph NE6.9 kmh NE 7.1 mph11.4 kmh 29.38 in994.9 mb 0.00 in0.0 mm 0.00 in0.0 mm 0.00 in0.0 mm
02:20 PM 74.2°F23.4°C 50.9°F10.5°C 44% 4.7 mph NNE7.6 kmh NNE 7.1 mph11.4 kmh 29.35 in993.9 mb 0.00 in0.0 mm 0.00 in0.0 mm 0.00 in0.0 mm
02:25 PM 74.4°F23.6°C 51.1°F10.6°C 44% 4.7 mph NE7.6 kmh NE 7.4 mph11.9 kmh 29.35 in993.9 mb 0.00 in0.0 mm 0.00 in0.0 mm 0.00 in0.0 mm
02:30 PM 74.4°F23.6°C 51.1°F10.6°C 44% 4.5 mph NE7.2 kmh NE 7.4 mph11.9 kmh 29.35 in993.9 mb 0.00 in0.0 mm 0.00 in0.0 mm 0.00 in0.0 mm
02:35 PM 74.4°F23.6°C 51.1°F10.6°C 44% 4.3 mph NE6.9 kmh NE 5.7 mph9.2 kmh 29.35 in993.9 mb 0.00 in0.0 mm 0.00 in0.0 mm 0.00 in0.0 mm
02:40 PM 74.4°F23.6°C 51.1°F10.6°C 44% 5.2 mph N8.4 kmh N 8.0 mph12.9 kmh 29.35 in993.9 mb 0.00 in0.0 mm 0.00 in0.0 mm 0.00 in0.0 mm
02:45 PM 74.0°F23.3°C 50.7°F10.4°C 44% 6.1 mph N9.8 kmh N 8.0 mph12.9 kmh 29.35 in993.9 mb 0.00 in0.0 mm 0.00 in0.0 mm 0.00 in0.0 mm
02:50 PM 74.0°F23.3°C 50.7°F10.4°C 44% 5.5 mph N8.9 kmh N 6.5 mph10.5 kmh 29.35 in993.9 mb 0.00 in0.0 mm 0.00 in0.0 mm 0.00 in0.0 mm
02:55 PM 74.0°F23.3°C 50.7°F10.4°C 44% 4.7 mph NE7.6 kmh NE 6.5 mph10.5 kmh 29.35 in993.9 mb 0.00 in0.0 mm 0.00 in0.0 mm 0.00 in0.0 mm
03:00 PM 74.0°F23.3°C 50.7°F10.4°C 44% 4.7 mph NE7.6 kmh NE 10.4 mph16.7 kmh 29.35 in993.9 mb 0.00 in0.0 mm 0.00 in0.0 mm 0.00 in0.0 mm
03:05 PM 73.7°F23.2°C 50.4°F10.2°C 44% 5.6 mph E9.0 kmh E 10.4 mph16.7 kmh 29.35 in993.9 mb 0.00 in0.0 mm 0.00 in0.0 mm 0.00 in0.0 mm
03:10 PM 73.3°F22.9°C 50.1°F10.1°C 44% 6.0 mph E9.7 kmh E 10.4 mph16.7 kmh 29.35 in993.9 mb 0.00 in0.0 mm 0.00 in0.0 mm 0.00 in0.0 mm
03:15 PM 72.9°F22.7°C 49.7°F9.8°C 44% 7.0 mph NE11.3 kmh NE 13.1 mph21.1 kmh 29.35 in993.9 mb 0.00 in0.0 mm 0.00 in0.0 mm 0.00 in0.0 mm
03:20 PM 72.6°F22.6°C 49.4°F9.7°C 44% 8.6 mph NE13.8 kmh NE 13.1 mph21.1 kmh 29.35 in993.9 mb 0.00 in0.0 mm 0.00 in0.0 mm 0.00 in0.0 mm
03:25 PM 72.2°F22.3°C 49.1°F9.5°C 44% 7.8 mph NE12.6 kmh NE 13.1 mph21.1 kmh 29.35 in993.9 mb 0.00 in0.0 mm 0.00 in0.0 mm 0.00 in0.0 mm
03:30 PM 71.7°F22.1°C 49.2°F9.6°C 45% 5.8 mph NE9.3 kmh NE 8.6 mph13.8 kmh 29.35 in993.9 mb 0.00 in0.0 mm 0.00 in0.0 mm 0.00 in0.0 mm
03:35 PM 71.3°F21.8°C 48.9°F9.4°C 45% 5.9 mph NE9.5 kmh NE 10.4 mph16.7 kmh 29.35 in993.9 mb 0.00 in0.0 mm 0.00 in0.0 mm 0.00 in0.0 mm
03:40 PM 71.2°F21.8°C 48.7°F9.3°C 45% 5.6 mph ENE9.0 kmh ENE 10.4 mph16.7 kmh 29.35 in993.9 mb 0.00 in0.0 mm 0.00 in0.0 mm 0.00 in0.0 mm
03:45 PM 70.8°F21.6°C 47.8°F8.8°C 44% 4.9 mph E7.9 kmh E 8.3 mph13.4 kmh 29.35 in993.9 mb 0.00 in0.0 mm 0.00 in0.0 mm 0.00 in0.0 mm
03:50 PM 70.6°F21.4°C 47.6°F8.7°C 44% 4.9 mph E7.9 kmh E 8.3 mph13.4 kmh 29.35 in993.9 mb 0.00 in0.0 mm 0.00 in0.0 mm 0.00 in0.0 mm
03:55 PM 70.4°F21.3°C 47.5°F8.6°C 44% 4.5 mph E7.2 kmh E 6.5 mph10.5 kmh 29.35 in993.9 mb 0.00 in0.0 mm 0.00 in0.0 mm 0.00 in0.0 mm
04:00 PM 70.3°F21.3°C 47.3°F8.5°C 44% 4.7 mph ENE7.6 kmh ENE 7.1 mph11.4 kmh 29.35 in993.9 mb 0.00 in0.0 mm 0.00 in0.0 mm 0.00 in0.0 mm
04:05 PM 70.1°F21.2°C 47.7°F8.7°C 45% 4.6 mph ENE7.4 kmh ENE 7.1 mph11.4 kmh 29.35 in993.9 mb 0.00 in0.0 mm 0.00 in0.0 mm 0.00 in0.0 mm
04:10 PM 69.9°F21.1°C 47.6°F8.7°C 45% 4.9 mph E7.9 kmh E 6.5 mph10.5 kmh 29.35 in993.9 mb 0.00 in0.0 mm 0.00 in0.0 mm 0.00 in0.0 mm
04:15 PM 69.7°F20.9°C 47.4°F8.6°C 45% 4.9 mph E7.9 kmh E 6.5 mph10.5 kmh 29.35 in993.9 mb 0.00 in0.0 mm 0.00 in0.0 mm 0.00 in0.0 mm
04:20 PM 69.7°F20.9°C 47.4°F8.6°C 45% 4.4 mph E7.1 kmh E 6.5 mph10.5 kmh 29.35 in993.9 mb 0.00 in0.0 mm 0.00 in0.0 mm 0.00 in0.0 mm
04:25 PM 69.5°F20.8°C 47.2°F8.4°C 45% 5.1 mph E8.2 kmh E 7.4 mph11.9 kmh 29.35 in993.9 mb 0.00 in0.0 mm 0.00 in0.0 mm 0.00 in0.0 mm
04:30 PM 69.5°F20.8°C 47.2°F8.4°C 45% 5.0 mph ENE8.0 kmh ENE 7.4 mph11.9 kmh 29.35 in993.9 mb 0.00 in0.0 mm 0.00 in0.0 mm 0.00 in0.0 mm
04:35 PM 69.3°F20.7°C 47.7°F8.7°C 46% 4.3 mph NE6.9 kmh NE 6.5 mph10.5 kmh 29.35 in993.9 mb 0.00 in0.0 mm 0.00 in0.0 mm 0.00 in0.0 mm
04:40 PM 69.2°F20.7°C 47.5°F8.6°C 46% 4.0 mph NE6.4 kmh NE 6.5 mph10.5 kmh 29.35 in993.9 mb 0.00 in0.0 mm 0.00 in0.0 mm 0.00 in0.0 mm
04:45 PM 69.0°F20.6°C 47.3°F8.5°C 46% 4.0 mph ENE6.4 kmh ENE 5.7 mph9.2 kmh 29.35 in993.9 mb 0.00 in0.0 mm 0.00 in0.0 mm 0.00 in0.0 mm
04:50 PM 69.0°F20.6°C 47.9°F8.8°C 47% 4.1 mph E6.6 kmh E 5.7 mph9.2 kmh 29.35 in993.9 mb 0.00 in0.0 mm 0.00 in0.0 mm 0.00 in0.0 mm
04:55 PM 68.8°F20.4°C 47.8°F8.8°C 47% 4.2 mph E6.8 kmh E 5.7 mph9.2 kmh 29.35 in993.9 mb 0.00 in0.0 mm 0.00 in0.0 mm 0.00 in0.0 mm
05:00 PM 68.8°F20.4°C 47.8°F8.8°C 47% 4.6 mph E7.4 kmh E 6.2 mph10.0 kmh 29.35 in993.9 mb 0.00 in0.0 mm 0.00 in0.0 mm 0.00 in0.0 mm
05:05 PM 68.6°F20.3°C 47.6°F8.7°C 47% 4.9 mph E7.9 kmh E 6.2 mph10.0 kmh 29.35 in993.9 mb 0.00 in0.0 mm 0.00 in0.0 mm 0.00 in0.0 mm
05:10 PM 68.4°F20.2°C 47.4°F8.6°C 47% 4.7 mph E7.6 kmh E 6.2 mph10.0 kmh 29.35 in993.9 mb 0.00 in0.0 mm 0.00 in0.0 mm 0.00 in0.0 mm
05:15 PM 68.3°F20.2°C 47.3°F8.5°C 47% 4.8 mph E7.7 kmh E 6.5 mph10.5 kmh 29.35 in993.9 mb 0.00 in0.0 mm 0.00 in0.0 mm 0.00 in0.0 mm
05:20 PM 68.1°F20.1°C 47.1°F8.4°C 47% 5.1 mph E8.2 kmh E 7.4 mph11.9 kmh 29.35 in993.9 mb 0.00 in0.0 mm 0.00 in0.0 mm 0.00 in0.0 mm
05:25 PM 67.9°F19.9°C 47.5°F8.6°C 48% 4.6 mph E7.4 kmh E 7.4 mph11.9 kmh 29.35 in993.9 mb 0.00 in0.0 mm 0.00 in0.0 mm 0.00 in0.0 mm
05:30 PM 67.7°F19.8°C 47.3°F8.5°C 48% 4.5 mph ENE7.2 kmh ENE 7.4 mph11.9 kmh 29.35 in993.9 mb 0.00 in0.0 mm 0.00 in0.0 mm 0.00 in0.0 mm
05:35 PM 67.6°F19.8°C 47.2°F8.4°C 48% 4.3 mph ENE6.9 kmh ENE 6.5 mph10.5 kmh 29.35 in993.9 mb 0.00 in0.0 mm 0.00 in0.0 mm 0.00 in0.0 mm
05:40 PM 67.4°F19.7°C 47.0°F8.3°C 48% 4.1 mph ENE6.6 kmh ENE 7.4 mph11.9 kmh 29.35 in993.9 mb 0.00 in0.0 mm 0.00 in0.0 mm 0.00 in0.0 mm
05:45 PM 67.4°F19.7°C 47.0°F8.3°C 48% 4.6 mph ENE7.4 kmh ENE 7.4 mph11.9 kmh 29.35 in993.9 mb 0.00 in0.0 mm 0.00 in0.0 mm 0.00 in0.0 mm
05:50 PM 67.0°F19.4°C 46.7°F8.2°C 48% 4.5 mph ENE7.2 kmh ENE 7.4 mph11.9 kmh 29.35 in993.9 mb 0.00 in0.0 mm 0.00 in0.0 mm 0.00 in0.0 mm
05:55 PM 66.8°F19.3°C 47.0°F8.3°C 49% 3.6 mph NE5.8 kmh NE 4.8 mph7.7 kmh 29.35 in993.9 mb 0.00 in0.0 mm 0.00 in0.0 mm 0.00 in0.0 mm
06:00 PM 66.7°F19.3°C 46.9°F8.3°C 49% 2.9 mph ENE4.7 kmh ENE 4.8 mph7.7 kmh 29.35 in993.9 mb 0.00 in0.0 mm 0.00 in0.0 mm 0.00 in0.0 mm
06:05 PM 66.5°F19.2°C 46.7°F8.2°C 49% 2.7 mph ENE4.3 kmh ENE 4.8 mph7.7 kmh 29.35 in993.9 mb 0.00 in0.0 mm 0.00 in0.0 mm 0.00 in0.0 mm
06:10 PM 66.3°F19.1°C 47.1°F8.4°C 50% 3.6 mph ENE5.8 kmh ENE 5.1 mph8.2 kmh 29.35 in993.9 mb 0.00 in0.0 mm 0.00 in0.0 mm 0.00 in0.0 mm
06:15 PM 66.3°F19.1°C 47.1°F8.4°C 50% 4.0 mph NE6.4 kmh NE 5.1 mph8.2 kmh 29.35 in993.9 mb 0.00 in0.0 mm 0.00 in0.0 mm 0.00 in0.0 mm
06:20 PM 65.9°F18.8°C 46.8°F8.2°C 50% 4.2 mph ENE6.8 kmh ENE 5.4 mph8.7 kmh 29.35 in993.9 mb 0.00 in0.0 mm 0.00 in0.0 mm 0.00 in0.0 mm
06:25 PM 65.8°F18.8°C 46.6°F8.1°C 50% 3.9 mph NE6.3 kmh NE 5.4 mph8.7 kmh 29.35 in993.9 mb 0.00 in0.0 mm 0.00 in0.0 mm 0.00 in0.0 mm
06:30 PM 65.6°F18.7°C 46.4°F8.0°C 50% 3.5 mph ENE5.6 kmh ENE 6.2 mph10.0 kmh 29.35 in993.9 mb 0.00 in0.0 mm 0.00 in0.0 mm 0.00 in0.0 mm
06:35 PM 65.4°F18.6°C 46.3°F7.9°C 50% 3.3 mph ENE5.3 kmh ENE 6.2 mph10.0 kmh 29.35 in993.9 mb 0.00 in0.0 mm 0.00 in0.0 mm 0.00 in0.0 mm
06:40 PM 65.2°F18.4°C 46.1°F7.8°C 50% 3.4 mph ENE5.5 kmh ENE 4.2 mph6.8 kmh 29.35 in993.9 mb 0.00 in0.0 mm 0.00 in0.0 mm 0.00 in0.0 mm
06:45 PM 65.0°F18.3°C 45.9°F7.7°C 50% 3.8 mph E6.1 kmh E 5.1 mph8.2 kmh 29.35 in993.9 mb 0.00 in0.0 mm 0.00 in0.0 mm 0.00 in0.0 mm
06:50 PM 65.0°F18.3°C 46.5°F8.1°C 51% 3.9 mph E6.3 kmh E 5.4 mph8.7 kmh 29.35 in993.9 mb 0.00 in0.0 mm 0.00 in0.0 mm 0.00 in0.0 mm
06:55 PM 64.7°F18.2°C 46.1°F7.8°C 51% 3.8 mph E6.1 kmh E 5.4 mph8.7 kmh 29.35 in993.9 mb 0.00 in0.0 mm 0.00 in0.0 mm 0.00 in0.0 mm
07:00 PM 64.7°F18.2°C 46.1°F7.8°C 51% 2.7 mph E4.3 kmh E 4.5 mph7.2 kmh 29.35 in993.9 mb 0.00 in0.0 mm 0.00 in0.0 mm 0.00 in0.0 mm
07:05 PM 64.5°F18.1°C 46.5°F8.1°C 52% 1.9 mph E3.1 kmh E 4.2 mph6.8 kmh 29.35 in993.9 mb 0.00 in0.0 mm 0.00 in0.0 mm 0.00 in0.0 mm
07:10 PM 64.3°F17.9°C 46.3°F7.9°C 52% 1.9 mph E3.1 kmh E 4.8 mph7.7 kmh 29.35 in993.9 mb 0.00 in0.0 mm 0.00 in0.0 mm 0.00 in0.0 mm
07:15 PM 64.1°F17.8°C 46.1°F7.8°C 52% 1.5 mph ESE2.4 kmh ESE 4.8 mph7.7 kmh 29.35 in993.9 mb 0.00 in0.0 mm 0.00 in0.0 mm 0.00 in0.0 mm
07:20 PM 64.0°F17.8°C 46.0°F7.8°C 52% 2.1 mph E3.4 kmh E 5.4 mph8.7 kmh 29.35 in993.9 mb 0.00 in0.0 mm 0.00 in0.0 mm 0.00 in0.0 mm
07:25 PM 63.8°F17.7°C 46.3°F7.9°C 53% 2.8 mph E4.5 kmh E 5.4 mph8.7 kmh 29.35 in993.9 mb 0.00 in0.0 mm 0.00 in0.0 mm 0.00 in0.0 mm
07:30 PM 63.6°F17.6°C 46.1°F7.8°C 53% 3.4 mph E5.5 kmh E 5.7 mph9.2 kmh 29.35 in993.9 mb 0.00 in0.0 mm 0.00 in0.0 mm 0.00 in0.0 mm
07:35 PM 63.4°F17.4°C 46.0°F7.8°C 53% 4.0 mph E6.4 kmh E 5.7 mph9.2 kmh 29.35 in993.9 mb 0.00 in0.0 mm 0.00 in0.0 mm 0.00 in0.0 mm
07:40 PM 63.0°F17.2°C 46.6°F8.1°C 55% 4.2 mph E6.8 kmh E 5.4 mph8.7 kmh 29.35 in993.9 mb 0.00 in0.0 mm 0.00 in0.0 mm 0.00 in0.0 mm
07:45 PM 62.9°F17.2°C 46.5°F8.1°C 55% 4.4 mph E7.1 kmh E 5.4 mph8.7 kmh 29.35 in993.9 mb 0.00 in0.0 mm 0.00 in0.0 mm 0.00 in0.0 mm
07:50 PM 62.7°F17.1°C 46.3°F7.9°C 55% 4.1 mph E6.6 kmh E 5.1 mph8.2 kmh 29.35 in993.9 mb 0.00 in0.0 mm 0.00 in0.0 mm 0.00 in0.0 mm
07:55 PM 62.5°F16.9°C 46.6°F8.1°C 56% 3.9 mph E6.3 kmh E 5.1 mph8.2 kmh 29.35 in993.9 mb 0.00 in0.0 mm 0.00 in0.0 mm 0.00 in0.0 mm
08:00 PM 62.3°F16.8°C 46.4°F8.0°C 56% 3.3 mph E5.3 kmh E 4.5 mph7.2 kmh 29.35 in993.9 mb 0.00 in0.0 mm 0.00 in0.0 mm 0.00 in0.0 mm
08:05 PM 62.3°F16.8°C 46.4°F8.0°C 56% 2.7 mph E4.3 kmh E 5.4 mph8.7 kmh 29.35 in993.9 mb 0.00 in0.0 mm 0.00 in0.0 mm 0.00 in0.0 mm
08:10 PM 62.0°F16.7°C 46.6°F8.1°C 57% 3.5 mph E5.6 kmh E 5.4 mph8.7 kmh 29.35 in993.9 mb 0.00 in0.0 mm 0.00 in0.0 mm 0.00 in0.0 mm
08:15 PM 62.0°F16.7°C 46.6°F8.1°C 57% 4.2 mph E6.8 kmh E 7.1 mph11.4 kmh 29.35 in993.9 mb 0.00 in0.0 mm 0.00 in0.0 mm 0.00 in0.0 mm
08:20 PM 61.8°F16.6°C 46.4°F8.0°C 57% 4.5 mph E7.2 kmh E 7.1 mph11.4 kmh 29.35 in993.9 mb 0.00 in0.0 mm 0.00 in0.0 mm 0.00 in0.0 mm
08:25 PM 61.6°F16.4°C 46.7°F8.2°C 58% 4.4 mph ENE7.1 kmh ENE 5.4 mph8.7 kmh 29.35 in993.9 mb 0.00 in0.0 mm 0.00 in0.0 mm 0.00 in0.0 mm
08:30 PM 61.6°F16.4°C 46.7°F8.2°C 58% 3.3 mph E5.3 kmh E 4.8 mph7.7 kmh 29.35 in993.9 mb 0.00 in0.0 mm 0.00 in0.0 mm 0.00 in0.0 mm
08:35 PM 61.4°F16.3°C 46.5°F8.1°C 58% 2.9 mph E4.7 kmh E 3.6 mph5.8 kmh 29.32 in992.9 mb 0.00 in0.0 mm 0.00 in0.0 mm 0.00 in0.0 mm
08:40 PM 61.3°F16.3°C 46.3°F7.9°C 58% 1.7 mph E2.7 kmh E 3.0 mph4.8 kmh 29.32 in992.9 mb 0.00 in0.0 mm 0.00 in0.0 mm 0.00 in0.0 mm
08:45 PM 61.1°F16.2°C 46.6°F8.1°C 59% 0.5 mph E0.8 kmh E 2.1 mph3.4 kmh 29.32 in992.9 mb 0.00 in0.0 mm 0.00 in0.0 mm 0.00 in0.0 mm
08:50 PM 61.1°F16.2°C 46.6°F8.1°C 59% 1.4 mph NE2.3 kmh NE 4.8 mph7.7 kmh 29.32 in992.9 mb 0.00 in0.0 mm 0.00 in0.0 mm 0.00 in0.0 mm
08:55 PM 61.1°F16.2°C 46.6°F8.1°C 59% 3.2 mph E5.1 kmh E 4.8 mph7.7 kmh 29.32 in992.9 mb 0.00 in0.0 mm 0.00 in0.0 mm 0.00 in0.0 mm
09:00 PM 61.1°F16.2°C 46.6°F8.1°C 59% 4.1 mph E6.6 kmh E 4.8 mph7.7 kmh 29.32 in992.9 mb 0.00 in0.0 mm 0.00 in0.0 mm 0.00 in0.0 mm
09:05 PM 60.9°F16.1°C 46.9°F8.3°C 60% 2.9 mph ESE4.7 kmh ESE 4.8 mph7.7 kmh 29.32 in992.9 mb 0.00 in0.0 mm 0.00 in0.0 mm 0.00 in0.0 mm
09:10 PM 60.9°F16.1°C 46.9°F8.3°C 60% 1.7 mph E2.7 kmh E 3.6 mph5.8 kmh 29.32 in992.9 mb 0.00 in0.0 mm 0.00 in0.0 mm 0.00 in0.0 mm
09:15 PM 60.7°F15.9°C 46.7°F8.2°C 60% 1.6 mph ENE2.6 kmh ENE 3.6 mph5.8 kmh 29.32 in992.9 mb 0.00 in0.0 mm 0.00 in0.0 mm 0.00 in0.0 mm
09:20 PM 60.7°F15.9°C 46.7°F8.2°C 60% 1.6 mph ENE2.6 kmh ENE 2.1 mph3.4 kmh 29.35 in993.9 mb 0.00 in0.0 mm 0.00 in0.0 mm 0.00 in0.0 mm
09:25 PM 60.5°F15.8°C 46.6°F8.1°C 60% 2.0 mph E3.2 kmh E 3.3 mph5.3 kmh 29.35 in993.9 mb 0.00 in0.0 mm 0.00 in0.0 mm 0.00 in0.0 mm
09:30 PM 60.3°F15.7°C 46.4°F8.0°C 60% 3.0 mph E4.8 kmh E 5.4 mph8.7 kmh 29.35 in993.9 mb 0.00 in0.0 mm 0.00 in0.0 mm 0.00 in0.0 mm
09:35 PM 60.2°F15.7°C 46.2°F7.9°C 60% 4.2 mph ENE6.8 kmh ENE 5.4 mph8.7 kmh 29.32 in992.9 mb 0.00 in0.0 mm 0.00 in0.0 mm 0.00 in0.0 mm
09:40 PM 60.2°F15.7°C 45.8°F7.7°C 59% 4.5 mph E7.2 kmh E 5.7 mph9.2 kmh 29.32 in992.9 mb 0.00 in0.0 mm 0.00 in0.0 mm 0.00 in0.0 mm
09:45 PM 60.2°F15.7°C 45.8°F7.7°C 59% 4.8 mph ENE7.7 kmh ENE 5.7 mph9.2 kmh 29.32 in992.9 mb 0.00 in0.0 mm 0.00 in0.0 mm 0.00 in0.0 mm
09:50 PM 60.2°F15.7°C 45.8°F7.7°C 59% 4.8 mph ENE7.7 kmh ENE 5.7 mph9.2 kmh 29.32 in992.9 mb 0.00 in0.0 mm 0.00 in0.0 mm 0.00 in0.0 mm
09:55 PM 60.0°F15.6°C 45.2°F7.3°C 58% 4.2 mph ENE6.8 kmh ENE 6.5 mph10.5 kmh 29.32 in992.9 mb 0.00 in0.0 mm 0.00 in0.0 mm 0.00 in0.0 mm
10:00 PM 60.0°F15.6°C 44.7°F7.1°C 57% 4.7 mph E7.6 kmh E 6.5 mph10.5 kmh 29.32 in992.9 mb 0.00 in0.0 mm 0.00 in0.0 mm 0.00 in0.0 mm
10:05 PM 60.0°F15.6°C 44.7°F7.1°C 57% 4.9 mph E7.9 kmh E 8.3 mph13.4 kmh 29.32 in992.9 mb 0.00 in0.0 mm 0.00 in0.0 mm 0.00 in0.0 mm
10:10 PM 59.8°F15.4°C 44.5°F6.9°C 57% 5.1 mph E8.2 kmh E 8.3 mph13.4 kmh 29.32 in992.9 mb 0.00 in0.0 mm 0.00 in0.0 mm 0.00 in0.0 mm
10:15 PM 59.8°F15.4°C 44.1°F6.7°C 56% 5.5 mph E8.9 kmh E 7.4 mph11.9 kmh 29.32 in992.9 mb 0.00 in0.0 mm 0.00 in0.0 mm 0.00 in0.0 mm
10:20 PM 59.8°F15.4°C 44.1°F6.7°C 56% 5.6 mph E9.0 kmh E 7.4 mph11.9 kmh 29.32 in992.9 mb 0.00 in0.0 mm 0.00 in0.0 mm 0.00 in0.0 mm
10:25 PM 59.8°F15.4°C 44.1°F6.7°C 56% 6.1 mph E9.8 kmh E 7.7 mph12.4 kmh 29.32 in992.9 mb 0.00 in0.0 mm 0.00 in0.0 mm 0.00 in0.0 mm
10:30 PM 59.6°F15.3°C 43.9°F6.6°C 56% 6.0 mph E9.7 kmh E 8.0 mph12.9 kmh 29.32 in992.9 mb 0.00 in0.0 mm 0.00 in0.0 mm 0.00 in0.0 mm
10:35 PM 59.6°F15.3°C 43.9°F6.6°C 56% 4.7 mph E7.6 kmh E 8.0 mph12.9 kmh 29.32 in992.9 mb 0.00 in0.0 mm 0.00 in0.0 mm 0.00 in0.0 mm
10:40 PM 59.5°F15.3°C 43.7°F6.5°C 56% 4.1 mph E6.6 kmh E 4.8 mph7.7 kmh 29.32 in992.9 mb 0.00 in0.0 mm 0.00 in0.0 mm 0.00 in0.0 mm
10:45 PM 59.5°F15.3°C 43.7°F6.5°C 56% 4.0 mph E6.4 kmh E 5.1 mph8.2 kmh 29.32 in992.9 mb 0.00 in0.0 mm 0.00 in0.0 mm 0.00 in0.0 mm
10:50 PM 59.3°F15.2°C 43.6°F6.4°C 56% 3.8 mph ENE6.1 kmh ENE 5.1 mph8.2 kmh 29.32 in992.9 mb 0.00 in0.0 mm 0.00 in0.0 mm 0.00 in0.0 mm
10:55 PM 59.1°F15.1°C 43.4°F6.3°C 56% 3.7 mph E6.0 kmh E 5.4 mph8.7 kmh 29.32 in992.9 mb 0.00 in0.0 mm 0.00 in0.0 mm 0.00 in0.0 mm
11:00 PM 58.9°F14.9°C 43.7°F6.5°C 57% 4.4 mph E7.1 kmh E 8.0 mph12.9 kmh 29.32 in992.9 mb 0.00 in0.0 mm 0.00 in0.0 mm 0.00 in0.0 mm
11:05 PM 58.9°F14.9°C 43.7°F6.5°C 57% 3.8 mph E6.1 kmh E 8.0 mph12.9 kmh 29.32 in992.9 mb 0.00 in0.0 mm 0.00 in0.0 mm 0.00 in0.0 mm
11:10 PM 58.7°F14.8°C 43.5°F6.4°C 57% 2.7 mph ESE4.3 kmh ESE 5.4 mph8.7 kmh 29.32 in992.9 mb 0.00 in0.0 mm 0.00 in0.0 mm 0.00 in0.0 mm
11:15 PM 58.5°F14.7°C 43.4°F6.3°C 57% 2.7 mph ESE4.3 kmh ESE 4.2 mph6.8 kmh 29.32 in992.9 mb 0.00 in0.0 mm 0.00 in0.0 mm 0.00 in0.0 mm
11:20 PM 58.4°F14.7°C 43.2°F6.2°C 57% 2.4 mph E3.9 kmh E 4.2 mph6.8 kmh 29.32 in992.9 mb 0.00 in0.0 mm 0.00 in0.0 mm 0.00 in0.0 mm
11:25 PM 58.4°F14.7°C 43.6°F6.4°C 58% 2.6 mph ESE4.2 kmh ESE 4.5 mph7.2 kmh 29.32 in992.9 mb 0.00 in0.0 mm 0.00 in0.0 mm 0.00 in0.0 mm
11:30 PM 58.2°F14.6°C 43.0°F6.1°C 57% 2.9 mph ESE4.7 kmh ESE 4.5 mph7.2 kmh 29.32 in992.9 mb 0.00 in0.0 mm 0.00 in0.0 mm 0.00 in0.0 mm
11:35 PM 58.2°F14.6°C 43.5°F6.4°C 58% 2.5 mph SE4.0 kmh SE 3.9 mph6.3 kmh 29.32 in992.9 mb 0.00 in0.0 mm 0.00 in0.0 mm 0.00 in0.0 mm
11:40 PM 58.2°F14.6°C 43.0°F6.1°C 57% 2.3 mph SSE3.7 kmh SSE 4.8 mph7.7 kmh 29.32 in992.9 mb 0.00 in0.0 mm 0.00 in0.0 mm 0.00 in0.0 mm
11:45 PM 58.0°F14.4°C 42.9°F6.1°C 57% 3.1 mph ESE5.0 kmh ESE 5.1 mph8.2 kmh 29.32 in992.9 mb 0.00 in0.0 mm 0.00 in0.0 mm 0.00 in0.0 mm
11:50 PM 58.0°F14.4°C 42.9°F6.1°C 57% 2.4 mph E3.9 kmh E 5.1 mph8.2 kmh 29.32 in992.9 mb 0.00 in0.0 mm 0.00 in0.0 mm 0.00 in0.0 mm
11:55 PM 57.8°F14.3°C 42.7°F5.9°C 57% 0.8 mph E1.3 kmh E 2.1 mph3.4 kmh 29.32 in992.9 mb 0.00 in0.0 mm 0.00 in0.0 mm 0.00 in0.0 mm